Time;durP1;ratioP1;P1;durP2;ratioP2;P2;SDS_P1;SDS_P2;PMS_P1;PMS_P2;Temp;Humidity;BMP_temperature;BMP_pressure;BME280_temperature;BME280_humidity;BME280_pressure;Samples;Min_cycle;Max_cycle;Signal;HPM_P1;HPM_P2
2023/07/07 00:01:01;;;;;;;8.05;4.20;;;;;;;;;;5227025;28;20108;-71
2023/07/07 00:03:31;;;;;;;8.82;4.22;;;;;;;;;;5227368;28;20028;-71
2023/07/07 00:06:02;;;;;;;11.15;4.57;;;;;;;;;;5226709;28;20023;-71
2023/07/07 00:08:33;;;;;;;7.75;4.65;;;;;;;;;;5227184;28;20100;-71
2023/07/07 00:11:04;;;;;;;8.73;4.50;;;;;;;;;;5226644;28;20036;-71
2023/07/07 00:13:35;;;;;;;6.93;2.78;;;;;;;;;;5227714;28;20020;-71
2023/07/07 00:16:05;;;;;;;6.60;3.30;;;;;;;;;;5226587;28;20028;-71
2023/07/07 00:18:35;;;;;;;5.70;3.22;;;;;;;;;;5226839;28;20021;-71
2023/07/07 00:21:05;;;;;;;6.95;3.60;;;;;;;;;;5227179;28;20389;-71
2023/07/07 00:23:37;;;;;;;14.30;4.07;;;;;;;;;;5227249;28;20523;-71
2023/07/07 00:26:09;;;;;;;8.23;4.45;;;;;;;;;;5226539;28;20386;-71
2023/07/07 00:28:39;;;;;;;9.07;4.28;;;;;;;;;;5226634;28;20021;-71
2023/07/07 00:31:09;;;;;;;7.70;4.00;;;;;;;;;;5226905;28;20520;-71
2023/07/07 00:33:40;;;;;;;4.80;3.67;;;;;;;;;;5226817;28;20025;-71
2023/07/07 00:36:10;;;;;;;10.05;4.68;;;;;;;;;;5226087;28;20478;-72
2023/07/07 00:38:40;;;;;;;6.95;4.18;;;;;;;;;;5225435;28;20087;-71
2023/07/07 00:41:11;;;;;;;10.15;3.75;;;;;;;;;;5226827;28;20453;-72
2023/07/07 00:43:58;;;;;;;8.88;4.13;;;;;;;;;;5226600;28;20025;-71
2023/07/07 00:46:28;;;;;;;9.32;4.22;;;;;;;;;;5226328;28;20082;-71
2023/07/07 00:49:01;;;;;;;7.82;3.08;;;;;;;;;;5226395;28;20024;-72
2023/07/07 00:51:35;;;;;;;3.85;2.45;;;;;;;;;;5226392;28;20021;-72
2023/07/07 00:54:07;;;;;;;4.53;2.83;;;;;;;;;;5226466;28;20074;-71
2023/07/07 00:56:41;;;;;;;4.53;3.10;;;;;;;;;;5212805;28;20403;-71
2023/07/07 00:59:14;;;;;;;11.63;4.80;;;;;;;;;;5225881;28;20013;-71
2023/07/07 01:01:45;;;;;;;8.38;4.50;;;;;;;;;;5226134;28;20044;-71
2023/07/07 01:04:16;;;;;;;8.63;3.90;;;;;;;;;;5226502;28;20017;-71
2023/07/07 01:06:52;;;;;;;10.80;3.95;;;;;;;;;;5211791;28;20056;-71
2023/07/07 01:09:22;;;;;;;5.40;2.95;;;;;;;;;;5225927;28;20020;-71
2023/07/07 01:11:55;;;;;;;5.18;3.00;;;;;;;;;;5226301;28;20021;-71
2023/07/07 01:14:27;;;;;;;8.55;3.53;;;;;;;;;;5225989;28;20021;-71
2023/07/07 01:17:17;;;;;;;8.23;4.32;;;;;;;;;;5225449;28;20025;-71
2023/07/07 01:20:09;;;;;;;7.95;3.70;;;;;;;;;;5213035;28;20025;-71
2023/07/07 01:22:58;;;;;;;11.65;3.90;;;;;;;;;;5225860;28;20031;-72
2023/07/07 01:25:29;;;;;;;8.10;3.83;;;;;;;;;;5225931;28;20017;-71
2023/07/07 01:28:20;;;;;;;6.60;3.58;;;;;;;;;;5225707;28;20486;-71
2023/07/07 01:30:51;;;;;;;6.53;3.80;;;;;;;;;;5225910;28;20512;-71
2023/07/07 01:33:24;;;;;;;8.48;3.70;;;;;;;;;;5225875;28;20502;-71
2023/07/07 01:35:54;;;;;;;8.50;3.85;;;;;;;;;;5225313;28;20530;-71
2023/07/07 01:38:43;;;;;;;10.35;4.07;;;;;;;;;;5225430;28;20074;-71
2023/07/07 01:41:31;;;;;;;8.50;3.55;;;;;;;;;;5225614;28;20120;-71
2023/07/07 01:44:06;;;;;;;5.00;2.88;;;;;;;;;;5225562;28;20111;-71
2023/07/07 01:46:41;;;;;;;5.78;3.33;;;;;;;;;;5224883;28;20036;-71
2023/07/07 01:49:28;;;;;;;5.63;3.03;;;;;;;;;;5224465;28;20028;-71
2023/07/07 01:52:03;;;;;;;10.82;4.22;;;;;;;;;;5225083;28;20036;-71
2023/07/07 01:54:34;;;;;;;9.32;4.43;;;;;;;;;;5224722;28;20482;-72
2023/07/07 01:57:06;;;;;;;9.35;3.75;;;;;;;;;;5212285;28;20017;-72
2023/07/07 01:59:37;;;;;;;10.02;4.43;;;;;;;;;;5224778;28;20033;-71
2023/07/07 02:02:09;;;;;;;9.13;4.95;;;;;;;;;;5225318;28;20518;-72
2023/07/07 02:04:39;;;;;;;10.25;4.43;;;;;;;;;;5225602;28;20097;-71
2023/07/07 02:07:09;;;;;;;6.97;4.25;;;;;;;;;;5224751;28;20025;-72
2023/07/07 02:09:40;;;;;;;7.53;4.45;;;;;;;;;;5224311;28;20378;-71
2023/07/07 02:12:10;;;;;;;8.57;5.15;;;;;;;;;;5224905;28;20370;-71
2023/07/07 02:14:40;;;;;;;9.77;4.85;;;;;;;;;;5224958;28;20013;-71
2023/07/07 02:17:15;;;;;;;8.43;4.72;;;;;;;;;;5224370;28;20104;-72
2023/07/07 02:19:46;;;;;;;9.05;5.40;;;;;;;;;;5224908;28;20025;-71
2023/07/07 02:22:16;;;;;;;11.10;4.70;;;;;;;;;;5224772;28;20021;-72
2023/07/07 02:24:46;;;;;;;5.95;3.45;;;;;;;;;;5224735;28;20546;-71
2023/07/07 02:27:16;;;;;;;7.18;3.58;;;;;;;;;;5224619;28;20025;-71
2023/07/07 02:29:47;;;;;;;9.27;5.28;;;;;;;;;;5224653;28;20470;-71
2023/07/07 02:32:17;;;;;;;9.18;4.38;;;;;;;;;;5224692;28;20390;-71
2023/07/07 02:34:47;;;;;;;14.35;4.03;;;;;;;;;;5224684;28;20025;-71
2023/07/07 02:37:18;;;;;;;9.45;4.80;;;;;;;;;;5223958;28;20490;-71
2023/07/07 02:39:48;;;;;;;8.07;4.68;;;;;;;;;;5224535;28;20055;-71
2023/07/07 02:42:18;;;;;;;8.77;5.13;;;;;;;;;;5224665;28;20039;-71
2023/07/07 02:44:49;;;;;;;10.90;5.32;;;;;;;;;;5224338;28;20028;-71
2023/07/07 02:47:19;;;;;;;9.02;5.15;;;;;;;;;;5224018;28;20021;-71
2023/07/07 02:49:49;;;;;;;9.40;4.50;;;;;;;;;;5224268;28;20235;-71
2023/07/07 02:52:20;;;;;;;8.63;4.80;;;;;;;;;;5224706;28;20108;-71
2023/07/07 02:54:50;;;;;;;12.60;4.65;;;;;;;;;;5221343;28;20365;-71
2023/07/07 02:57:20;;;;;;;13.40;4.75;;;;;;;;;;5213860;28;20021;-71
2023/07/07 02:59:51;;;;;;;9.23;4.72;;;;;;;;;;5223965;28;20029;-71
2023/07/07 03:02:21;;;;;;;15.55;5.32;;;;;;;;;;5227306;28;20087;-71
2023/07/07 03:04:51;;;;;;;7.00;4.57;;;;;;;;;;5228304;28;20556;-71
2023/07/07 03:07:21;;;;;;;7.80;4.47;;;;;;;;;;5228009;28;20017;-71
2023/07/07 03:09:52;;;;;;;8.63;4.93;;;;;;;;;;5228084;28;20032;-71
2023/07/07 03:12:22;;;;;;;7.95;4.53;;;;;;;;;;5228546;28;20107;-72
2023/07/07 03:14:54;;;;;;;9.43;5.63;;;;;;;;;;5228647;28;20025;-71
2023/07/07 03:17:25;;;;;;;9.77;4.90;;;;;;;;;;5227775;28;20013;-72
2023/07/07 03:19:55;;;;;;;9.30;5.32;;;;;;;;;;5228195;28;20374;-71
2023/07/07 03:22:25;;;;;;;12.65;6.45;;;;;;;;;;5228255;28;20013;-72
2023/07/07 03:24:56;;;;;;;11.32;5.68;;;;;;;;;;5227684;28;20549;-72
2023/07/07 03:27:26;;;;;;;10.68;5.35;;;;;;;;;;5227630;28;20021;-71
2023/07/07 03:29:57;;;;;;;10.45;5.38;;;;;;;;;;5228071;28;20070;-72
2023/07/07 03:32:27;;;;;;;10.48;5.53;;;;;;;;;;5228032;28;20025;-71
2023/07/07 03:34:57;;;;;;;10.07;5.80;;;;;;;;;;5228036;28;20526;-71
2023/07/07 03:37:28;;;;;;;12.32;5.63;;;;;;;;;;5226989;28;20052;-71
2023/07/07 03:39:58;;;;;;;13.38;5.93;;;;;;;;;;5227748;28;20017;-71
2023/07/07 03:42:29;;;;;;;12.20;5.32;;;;;;;;;;5227867;28;20096;-71
2023/07/07 03:44:59;;;;;;;11.20;5.38;;;;;;;;;;5227576;28;20025;-72
2023/07/07 03:47:30;;;;;;;13.52;6.30;;;;;;;;;;5227332;28;20013;-72
2023/07/07 03:50:00;;;;;;;10.02;5.65;;;;;;;;;;5227181;28;20471;-71
2023/07/07 03:52:30;;;;;;;11.77;5.80;;;;;;;;;;5227733;28;20138;-71
2023/07/07 03:55:02;;;;;;;10.40;5.88;;;;;;;;;;5227258;28;20509;-71
2023/07/07 03:57:32;;;;;;;12.23;5.55;;;;;;;;;;5227191;28;20025;-71
2023/07/07 04:00:03;;;;;;;11.13;5.72;;;;;;;;;;5227350;28;20025;-71
2023/07/07 04:02:33;;;;;;;17.45;6.75;;;;;;;;;;5227058;28;20078;-71
2023/07/07 04:05:04;;;;;;;11.80;6.43;;;;;;;;;;5227464;28;20405;-71
2023/07/07 04:07:34;;;;;;;13.90;6.93;;;;;;;;;;5226918;28;20482;-71
2023/07/07 04:10:04;;;;;;;13.18;6.10;;;;;;;;;;5227229;28;20383;-71
2023/07/07 04:12:34;;;;;;;10.23;6.38;;;;;;;;;;5227021;28;20024;-71
2023/07/07 04:15:05;;;;;;;12.52;5.63;;;;;;;;;;5226890;28;20021;-71
2023/07/07 04:17:35;;;;;;;18.80;6.28;;;;;;;;;;5226579;28;20020;-71
2023/07/07 04:20:06;;;;;;;11.55;6.18;;;;;;;;;;5227263;28;20021;-71
2023/07/07 04:22:36;;;;;;;15.40;6.63;;;;;;;;;;5227082;28;20109;-71
2023/07/07 04:25:07;;;;;;;13.82;6.57;;;;;;;;;;5226871;28;20017;-71
2023/07/07 04:27:38;;;;;;;17.85;5.70;;;;;;;;;;5226128;28;20413;-71
2023/07/07 04:30:09;;;;;;;12.85;6.47;;;;;;;;;;5226942;28;20009;-71
2023/07/07 04:32:40;;;;;;;12.40;6.18;;;;;;;;;;5226833;28;20534;-71
2023/07/07 04:35:10;;;;;;;14.30;6.43;;;;;;;;;;5226862;28;20092;-71
2023/07/07 04:37:40;;;;;;;12.20;6.38;;;;;;;;;;5226349;28;20406;-71
2023/07/07 04:40:11;;;;;;;11.27;6.38;;;;;;;;;;5226432;28;20508;-72
2023/07/07 04:42:41;;;;;;;12.25;6.25;;;;;;;;;;5226971;28;20025;-71
2023/07/07 04:45:11;;;;;;;16.20;6.75;;;;;;;;;;5226491;28;20072;-71
2023/07/07 04:47:41;;;;;;;12.07;6.30;;;;;;;;;;5228645;28;20025;-71
2023/07/07 04:50:12;;;;;;;11.38;6.43;;;;;;;;;;5229101;28;20021;-71
2023/07/07 04:52:42;;;;;;;10.75;6.25;;;;;;;;;;5226377;28;20071;-71
2023/07/07 04:55:12;;;;;;;13.02;6.60;;;;;;;;;;5220270;28;20383;-71
2023/07/07 04:57:43;;;;;;;11.45;6.72;;;;;;;;;;5218509;28;20027;-71
2023/07/07 05:00:14;;;;;;;14.40;6.18;;;;;;;;;;5226255;28;20083;-71
2023/07/07 05:02:44;;;;;;;12.95;6.25;;;;;;;;;;5226007;28;20037;-71
2023/07/07 05:05:14;;;;;;;15.18;6.78;;;;;;;;;;5225982;28;20098;-71
2023/07/07 05:07:45;;;;;;;13.18;6.32;;;;;;;;;;5225813;28;20116;-71
2023/07/07 05:10:15;;;;;;;15.57;7.03;;;;;;;;;;5226105;28;20082;-71
2023/07/07 05:12:45;;;;;;;10.95;6.00;;;;;;;;;;5226055;28;20096;-71
2023/07/07 05:15:15;;;;;;;10.05;5.50;;;;;;;;;;5225829;28;20479;-71
2023/07/07 05:17:46;;;;;;;13.50;6.15;;;;;;;;;;5225827;28;20033;-71
2023/07/07 05:20:16;;;;;;;11.27;5.95;;;;;;;;;;5224844;28;20104;-71
2023/07/07 05:22:46;;;;;;;14.55;6.07;;;;;;;;;;5225976;28;20466;-71
2023/07/07 05:25:16;;;;;;;14.90;5.72;;;;;;;;;;5225008;28;20032;-70
2023/07/07 05:27:47;;;;;;;11.18;5.82;;;;;;;;;;5225150;28;20483;-71
2023/07/07 05:30:17;;;;;;;13.45;6.38;;;;;;;;;;5225705;28;20077;-70
2023/07/07 05:32:47;;;;;;;11.82;5.93;;;;;;;;;;5225788;28;20055;-71
2023/07/07 05:35:18;;;;;;;14.20;6.35;;;;;;;;;;5225596;28;20395;-71
2023/07/07 05:37:48;;;;;;;12.10;5.60;;;;;;;;;;5225102;28;20335;-72
2023/07/07 05:40:18;;;;;;;13.25;5.88;;;;;;;;;;5225107;28;20027;-71
2023/07/07 05:42:48;;;;;;;15.40;6.13;;;;;;;;;;5225939;28;20013;-72
2023/07/07 05:45:19;;;;;;;11.55;5.68;;;;;;;;;;5225173;28;20021;-72
2023/07/07 05:47:49;;;;;;;10.85;5.75;;;;;;;;;;5224941;28;20028;-71
2023/07/07 05:50:19;;;;;;;11.75;5.80;;;;;;;;;;5225186;28;20040;-72
2023/07/07 05:52:50;;;;;;;12.73;5.68;;;;;;;;;;5225000;28;20130;-72
2023/07/07 05:55:28;;;;;;;12.38;5.47;;;;;;;;;;5218007;28;20382;-72
2023/07/07 05:57:59;;;;;;;10.25;4.85;;;;;;;;;;5219767;28;20029;-72
2023/07/07 06:00:31;;;;;;;12.52;5.20;;;;;;;;;;5225248;28;20029;-72
2023/07/07 06:03:01;;;;;;;8.70;4.88;;;;;;;;;;5225205;28;20402;-72
2023/07/07 06:05:32;;;;;;;14.32;5.30;;;;;;;;;;5224640;28;20417;-72
2023/07/07 06:08:04;;;;;;;14.32;5.20;;;;;;;;;;5224585;28;20025;-71
2023/07/07 06:10:34;;;;;;;10.00;4.72;;;;;;;;;;5225189;28;20013;-72
2023/07/07 06:13:04;;;;;;;11.27;4.35;;;;;;;;;;5224899;28;20032;-72
2023/07/07 06:15:35;;;;;;;7.07;3.78;;;;;;;;;;5224771;28;20036;-72
2023/07/07 06:18:05;;;;;;;12.30;3.65;;;;;;;;;;5224068;28;20017;-71
2023/07/07 06:20:35;;;;;;;9.93;3.67;;;;;;;;;;5224926;28;20029;-72
2023/07/07 06:23:08;;;;;;;9.43;4.25;;;;;;;;;;5224911;28;20178;-72
2023/07/07 06:25:38;;;;;;;5.72;3.67;;;;;;;;;;5224421;28;20035;-72
2023/07/07 06:28:08;;;;;;;7.07;4.03;;;;;;;;;;5224393;28;20009;-72
2023/07/07 06:30:39;;;;;;;6.00;3.67;;;;;;;;;;5224553;28;20025;-72
2023/07/07 06:33:09;;;;;;;8.43;4.07;;;;;;;;;;5224728;28;20017;-72
2023/07/07 06:35:39;;;;;;;7.15;3.58;;;;;;;;;;5223215;28;20032;-73
2023/07/07 06:38:10;;;;;;;7.80;3.80;;;;;;;;;;5223418;28;20060;-73
2023/07/07 06:40:40;;;;;;;10.80;3.72;;;;;;;;;;5224423;28;20099;-72
2023/07/07 06:43:10;;;;;;;9.48;3.15;;;;;;;;;;5224905;28;20027;-73
2023/07/07 06:45:40;;;;;;;9.93;3.83;;;;;;;;;;5223939;28;20033;-72
2023/07/07 06:48:11;;;;;;;6.50;3.78;;;;;;;;;;5224888;28;20071;-73
2023/07/07 06:50:41;;;;;;;6.97;3.87;;;;;;;;;;5224469;28;20084;-72
2023/07/07 06:53:11;;;;;;;8.77;3.03;;;;;;;;;;5224140;28;20255;-73
2023/07/07 06:55:43;;;;;;;9.20;3.45;;;;;;;;;;5214079;28;20009;-73
2023/07/07 06:58:13;;;;;;;7.65;3.35;;;;;;;;;;5221092;28;20025;-72
2023/07/07 07:00:44;;;;;;;6.50;2.90;;;;;;;;;;5224307;28;20020;-73
2023/07/07 07:03:14;;;;;;;5.22;2.90;;;;;;;;;;5224427;28;20538;-73
2023/07/07 07:05:44;;;;;;;6.93;3.40;;;;;;;;;;5223488;28;20057;-72
2023/07/07 07:08:14;;;;;;;5.37;2.90;;;;;;;;;;5224509;28;20259;-72
2023/07/07 07:10:45;;;;;;;11.18;3.00;;;;;;;;;;5224093;28;20321;-73
2023/07/07 07:13:15;;;;;;;8.03;3.27;;;;;;;;;;5224645;28;20366;-73
2023/07/07 07:15:45;;;;;;;7.55;3.67;;;;;;;;;;5223833;28;20271;-73
2023/07/07 07:18:16;;;;;;;6.03;3.10;;;;;;;;;;5223657;28;20035;-73
2023/07/07 07:20:48;;;;;;;7.90;3.30;;;;;;;;;;5224142;28;20653;-73
2023/07/07 07:23:18;;;;;;;4.35;2.35;;;;;;;;;;5224215;28;20028;-73
2023/07/07 07:25:48;;;;;;;8.97;2.40;;;;;;;;;;5223610;28;20025;-73
2023/07/07 07:28:19;;;;;;;6.32;3.05;;;;;;;;;;5224204;28;20676;-73
2023/07/07 07:30:49;;;;;;;11.75;3.40;;;;;;;;;;5223709;28;20020;-73
2023/07/07 07:33:20;;;;;;;11.75;3.25;;;;;;;;;;5224245;28;20446;-73
2023/07/07 07:35:50;;;;;;;7.28;3.08;;;;;;;;;;5223639;28;20028;-74
2023/07/07 07:38:21;;;;;;;5.90;2.88;;;;;;;;;;5224029;28;20021;-73
2023/07/07 07:40:52;;;;;;;11.88;2.58;;;;;;;;;;5224062;28;20060;-74
2023/07/07 07:43:22;;;;;;;4.07;2.38;;;;;;;;;;5223943;28;20021;-74
2023/07/07 07:45:54;;;;;;;7.30;3.00;;;;;;;;;;5223521;28;20048;-73
2023/07/07 07:48:24;;;;;;;5.50;2.88;;;;;;;;;;5226482;28;20764;-74
2023/07/07 07:50:54;;;;;;;5.32;2.90;;;;;;;;;;5227800;28;20032;-74
2023/07/07 07:53:25;;;;;;;5.70;2.80;;;;;;;;;;5227706;28;20489;-72
2023/07/07 07:55:55;;;;;;;8.38;2.85;;;;;;;;;;5215757;28;20310;-72
2023/07/07 07:58:25;;;;;;;4.07;2.23;;;;;;;;;;5225914;28;20416;-72
2023/07/07 08:00:55;;;;;;;10.23;2.43;;;;;;;;;;5227432;28;20305;-72
2023/07/07 08:03:26;;;;;;;6.47;2.83;;;;;;;;;;5227616;28;20633;-72
2023/07/07 08:05:56;;;;;;;9.73;2.70;;;;;;;;;;5226858;28;20271;-72
2023/07/07 08:08:26;;;;;;;5.17;2.37;;;;;;;;;;5226954;28;20426;-72
2023/07/07 08:10:56;;;;;;;5.93;2.13;;;;;;;;;;5227122;28;20255;-72
2023/07/07 08:13:27;;;;;;;9.30;2.53;;;;;;;;;;5227372;28;20339;-73
2023/07/07 08:15:57;;;;;;;4.00;2.23;;;;;;;;;;5226804;28;20259;-72
2023/07/07 08:18:27;;;;;;;10.10;2.47;;;;;;;;;;5227138;28;20271;-72
2023/07/07 08:20:58;;;;;;;4.80;2.60;;;;;;;;;;5227321;28;20746;-73
2023/07/07 08:23:28;;;;;;;6.90;2.40;;;;;;;;;;5227268;28;20266;-72
2023/07/07 08:25:58;;;;;;;4.73;2.77;;;;;;;;;;5226539;28;20649;-73
2023/07/07 08:28:29;;;;;;;5.28;2.22;;;;;;;;;;5227094;28;20335;-72
2023/07/07 08:30:59;;;;;;;6.10;2.55;;;;;;;;;;5226863;28;20102;-72
2023/07/07 08:33:29;;;;;;;5.73;2.47;;;;;;;;;;5226628;28;20032;-72
2023/07/07 08:36:00;;;;;;;7.68;2.42;;;;;;;;;;5226665;28;20295;-73
2023/07/07 08:38:30;;;;;;;4.40;2.60;;;;;;;;;;5226453;28;20112;-72
2023/07/07 08:41:00;;;;;;;6.23;2.47;;;;;;;;;;5226829;28;20041;-72
2023/07/07 08:43:31;;;;;;;4.65;2.38;;;;;;;;;;5226636;28;20256;-72
2023/07/07 08:46:08;;;;;;;6.45;2.45;;;;;;;;;;5226650;28;20039;-72
2023/07/07 08:48:57;;;;;;;5.10;2.45;;;;;;;;;;5226446;28;20497;-73
2023/07/07 08:51:32;;;;;;;5.57;2.72;;;;;;;;;;5226500;28;20029;-72
2023/07/07 08:54:17;;;;;;;4.78;2.53;;;;;;;;;;5226247;28;20086;-72
2023/07/07 08:56:52;;;;;;;5.32;2.60;;;;;;;;;;5212508;28;20024;-72
2023/07/07 08:59:39;;;;;;;8.10;2.10;;;;;;;;;;5225033;28;20032;-72
2023/07/07 09:02:28;;;;;;;5.55;2.22;;;;;;;;;;5226361;28;20521;-72
2023/07/07 09:05:17;;;;;;;6.65;2.65;;;;;;;;;;5226174;28;20025;-72
2023/07/07 09:08:01;;;;;;;4.85;2.45;;;;;;;;;;5225589;28;20116;-72
2023/07/07 09:10:48;;;;;;;5.07;2.40;;;;;;;;;;5226265;28;20028;-72
2023/07/07 09:13:28;;;;;;;7.55;2.40;;;;;;;;;;5213570;28;20418;-72
2023/07/07 09:16:18;;;;;;;5.43;2.15;;;;;;;;;;5225930;28;20471;-72
2023/07/07 09:18:52;;;;;;;4.50;2.20;;;;;;;;;;5218008;28;20391;-72
2023/07/07 09:21:28;;;;;;;3.78;2.25;;;;;;;;;;5212684;28;20453;-72
2023/07/07 09:24:02;;;;;;;3.95;2.00;;;;;;;;;;5225864;28;20027;-72
2023/07/07 09:26:33;;;;;;;2.93;2.10;;;;;;;;;;5225561;28;20433;-73
2023/07/07 09:29:06;;;;;;;3.53;2.30;;;;;;;;;;5225754;28;20260;-72
2023/07/07 09:31:39;;;;;;;3.28;2.17;;;;;;;;;;5225490;28;20108;-72
2023/07/07 09:34:10;;;;;;;6.00;2.25;;;;;;;;;;5225739;28;20028;-72
2023/07/07 09:36:43;;;;;;;4.55;2.10;;;;;;;;;;5225187;28;21103;-72
2023/07/07 09:39:13;;;;;;;4.32;2.00;;;;;;;;;;5225669;28;20021;-72
2023/07/07 09:41:44;;;;;;;4.30;2.07;;;;;;;;;;5225555;28;20090;-72
2023/07/07 09:44:32;;;;;;;6.27;1.93;;;;;;;;;;5225264;28;20335;-73
2023/07/07 09:47:14;;;;;;;2.92;1.92;;;;;;;;;;5224853;28;20363;-72
2023/07/07 09:49:48;;;;;;;5.43;2.50;;;;;;;;;;5225166;28;20031;-72
2023/07/07 09:52:27;;;;;;;4.22;2.17;;;;;;;;;;5225362;28;20085;-73
2023/07/07 09:54:59;;;;;;;5.40;2.30;;;;;;;;;;5221409;28;20022;-73
2023/07/07 09:57:48;;;;;;;8.13;2.35;;;;;;;;;;5215544;28;20032;-73
2023/07/07 10:00:20;;;;;;;8.10;2.08;;;;;;;;;;5225496;28;20398;-73
2023/07/07 10:02:51;;;;;;;2.97;1.80;;;;;;;;;;5224611;28;20025;-71
2023/07/07 10:05:23;;;;;;;9.35;2.50;;;;;;;;;;5225180;28;20766;-71
2023/07/07 10:07:54;;;;;;;3.25;1.88;;;;;;;;;;5224644;28;20021;-71
2023/07/07 10:10:24;;;;;;;7.18;2.38;;;;;;;;;;5224893;28;20249;-71
2023/07/07 10:12:54;;;;;;;4.35;2.30;;;;;;;;;;5224957;28;20020;-71
2023/07/07 10:15:43;;;;;;;3.15;2.25;;;;;;;;;;5224632;28;20036;-71
2023/07/07 10:18:17;;;;;;;5.97;2.05;;;;;;;;;;5224722;28;20032;-72
2023/07/07 10:20:47;;;;;;;5.72;2.13;;;;;;;;;;5225300;28;20600;-71
2023/07/07 10:23:17;;;;;;;5.95;2.00;;;;;;;;;;5224860;28;20036;-71
2023/07/07 10:25:48;;;;;;;6.20;2.15;;;;;;;;;;5223961;28;20021;-71
2023/07/07 10:28:19;;;;;;;4.78;2.22;;;;;;;;;;5224847;28;20021;-71
2023/07/07 10:30:50;;;;;;;4.32;2.33;;;;;;;;;;5224709;28;20107;-71
2023/07/07 10:33:21;;;;;;;4.85;1.90;;;;;;;;;;5224775;28;20390;-71
2023/07/07 10:35:51;;;;;;;4.72;2.47;;;;;;;;;;5224419;28;20025;-71
2023/07/07 10:38:23;;;;;;;4.90;2.20;;;;;;;;;;5224219;28;20035;-71
2023/07/07 10:40:55;;;;;;;3.78;2.10;;;;;;;;;;5224772;28;20060;-71
2023/07/07 10:43:25;;;;;;;4.80;1.98;;;;;;;;;;5224530;28;20021;-71
2023/07/07 10:45:56;;;;;;;4.25;2.42;;;;;;;;;;5224111;28;20025;-71
2023/07/07 10:48:26;;;;;;;4.67;2.10;;;;;;;;;;5224287;28;20024;-71
2023/07/07 10:51:04;;;;;;;5.67;2.77;;;;;;;;;;5224072;28;20338;-71
2023/07/07 10:53:53;;;;;;;3.58;1.92;;;;;;;;;;5224541;28;20673;-71
2023/07/07 10:56:39;;;;;;;5.35;2.15;;;;;;;;;;5223593;28;20154;-71
2023/07/07 10:59:19;;;;;;;4.20;2.22;;;;;;;;;;5224174;28;20430;-71
2023/07/07 11:01:59;;;;;;;4.95;2.30;;;;;;;;;;5224167;28;20171;-71
2023/07/07 11:04:48;;;;;;;8.55;2.50;;;;;;;;;;5224417;28;20021;-71
2023/07/07 11:07:30;;;;;;;7.45;2.35;;;;;;;;;;5223724;28;20541;-71
2023/07/07 11:10:18;;;;;;;5.32;2.22;;;;;;;;;;5211622;28;20020;-71
2023/07/07 11:13:07;;;;;;;4.50;2.40;;;;;;;;;;5224354;28;20021;-71
2023/07/07 11:15:45;;;;;;;9.30;1.90;;;;;;;;;;5223773;28;20032;-71
2023/07/07 11:18:26;;;;;;;6.72;2.60;;;;;;;;;;5224167;28;20021;-71
2023/07/07 11:21:13;;;;;;;5.65;2.38;;;;;;;;;;5224295;28;20020;-71
2023/07/07 11:23:53;;;;;;;5.15;2.47;;;;;;;;;;5228403;28;20490;-70
2023/07/07 11:26:29;;;;;;;6.13;2.53;;;;;;;;;;5227611;28;20036;-71
2023/07/07 11:29:05;;;;;;;7.07;2.60;;;;;;;;;;5228313;28;20024;-71
2023/07/07 11:31:54;;;;;;;4.72;2.35;;;;;;;;;;5228559;28;20048;-71
2023/07/07 11:34:31;;;;;;;5.80;2.55;;;;;;;;;;5215149;28;20374;-71
2023/07/07 11:37:17;;;;;;;8.95;2.78;;;;;;;;;;5227870;28;20021;-71
2023/07/07 11:39:56;;;;;;;5.07;2.78;;;;;;;;;;5228140;28;20478;-71
2023/07/07 11:42:26;;;;;;;9.20;3.13;;;;;;;;;;5228033;28;20024;-71
2023/07/07 11:45:13;;;;;;;7.95;2.60;;;;;;;;;;5227381;28;20098;-71
2023/07/07 11:47:50;;;;;;;5.82;2.65;;;;;;;;;;5227466;28;20035;-71
2023/07/07 11:50:27;;;;;;;6.97;2.63;;;;;;;;;;5227825;28;20020;-70
2023/07/07 11:52:58;;;;;;;6.57;2.75;;;;;;;;;;5227813;28;20028;-71
2023/07/07 11:55:42;;;;;;;5.88;2.83;;;;;;;;;;5227022;28;20040;-71
2023/07/07 11:58:21;;;;;;;4.38;2.67;;;;;;;;;;5227600;28;20021;-71
2023/07/07 12:00:54;;;;;;;6.78;2.90;;;;;;;;;;5228111;28;20378;-70
2023/07/07 12:03:28;;;;;;;8.80;3.63;;;;;;;;;;5227494;28;20082;-70
2023/07/07 12:06:00;;;;;;;6.50;2.60;;;;;;;;;;5227170;28;20372;-69
2023/07/07 12:08:44;;;;;;;5.15;2.60;;;;;;;;;;5227354;28;20021;-70
2023/07/07 12:11:14;;;;;;;8.70;2.65;;;;;;;;;;5227233;28;20105;-70
2023/07/07 12:14:05;;;;;;;6.47;3.03;;;;;;;;;;5227394;28;20448;-69
2023/07/07 12:16:37;;;;;;;7.07;2.88;;;;;;;;;;5226775;28;20029;-70
2023/07/07 12:19:41;;;;;;;6.22;2.53;;;;;;;;;;5227014;28;20414;-70
2023/07/07 12:22:15;;;;;;;7.63;3.25;;;;;;;;;;5227090;28;20121;-69
2023/07/07 12:24:53;;;;;;;10.45;3.50;;;;;;;;;;5226887;28;20025;-70
2023/07/07 12:27:28;;;;;;;5.85;2.80;;;;;;;;;;5226632;28;20021;-70
2023/07/07 12:30:00;;;;;;;11.05;2.90;;;;;;;;;;5226926;28;20044;-70
2023/07/07 12:32:30;;;;;;;6.70;3.03;;;;;;;;;;5227028;28;20013;-70
2023/07/07 12:35:04;;;;;;;9.00;4.35;;;;;;;;;;5226519;28;20102;-70
2023/07/07 12:37:34;;;;;;;15.65;8.48;;;;;;;;;;5226593;28;20479;-70
2023/07/07 12:40:13;;;;;;;15.65;11.43;;;;;;;;;;5226560;28;20024;-70
2023/07/07 12:42:44;;;;;;;5.63;3.38;;;;;;;;;;5227035;28;20028;-70
2023/07/07 12:45:14;;;;;;;5.10;3.15;;;;;;;;;;5226426;28;20025;-70
2023/07/07 12:47:48;;;;;;;5.17;2.87;;;;;;;;;;5226121;28;20082;-70
2023/07/07 12:50:25;;;;;;;7.03;3.95;;;;;;;;;;5226546;28;20624;-70
2023/07/07 12:53:01;;;;;;;7.40;3.40;;;;;;;;;;5226702;28;20021;-70
2023/07/07 12:55:36;;;;;;;5.50;3.00;;;;;;;;;;5210497;28;20067;-70
2023/07/07 12:58:06;;;;;;;8.77;3.60;;;;;;;;;;5221740;28;20028;-70
2023/07/07 13:00:39;;;;;;;14.07;3.63;;;;;;;;;;5226321;28;20017;-70
2023/07/07 13:03:09;;;;;;;7.03;3.78;;;;;;;;;;5226267;28;20035;-70
2023/07/07 13:06:00;;;;;;;4.93;3.03;;;;;;;;;;5225982;28;20025;-70
2023/07/07 13:08:45;;;;;;;4.82;3.53;;;;;;;;;;5225913;28;20267;-69
2023/07/07 13:11:26;;;;;;;5.07;3.00;;;;;;;;;;5226146;28;20024;-70
2023/07/07 13:13:56;;;;;;;9.02;3.50;;;;;;;;;;5226227;28;20111;-70
2023/07/07 13:16:27;;;;;;;9.23;3.70;;;;;;;;;;5225344;28;20104;-70
2023/07/07 13:18:58;;;;;;;9.00;3.95;;;;;;;;;;5226149;28;20382;-70
2023/07/07 13:21:30;;;;;;;8.15;3.35;;;;;;;;;;5226186;28;20025;-70
2023/07/07 13:24:02;;;;;;;7.07;3.60;;;;;;;;;;5225941;28;20028;-70
2023/07/07 13:26:32;;;;;;;7.53;3.65;;;;;;;;;;5225521;28;20025;-70
2023/07/07 13:29:04;;;;;;;6.73;3.47;;;;;;;;;;5225375;28;20474;-70
2023/07/07 13:31:38;;;;;;;8.75;3.67;;;;;;;;;;5225938;28;20321;-70
2023/07/07 13:34:28;;;;;;;10.00;3.95;;;;;;;;;;5225934;28;20363;-70
2023/07/07 13:37:03;;;;;;;9.05;4.18;;;;;;;;;;5225388;28;20017;-70
2023/07/07 13:39:33;;;;;;;7.32;3.58;;;;;;;;;;5225343;28;20049;-70
2023/07/07 13:42:05;;;;;;;8.23;4.40;;;;;;;;;;5225618;28;20105;-70
2023/07/07 13:44:35;;;;;;;8.20;4.18;;;;;;;;;;5225085;28;20025;-70
2023/07/07 13:47:13;;;;;;;6.75;4.38;;;;;;;;;;5225079;28;20024;-70
2023/07/07 13:49:44;;;;;;;7.35;4.00;;;;;;;;;;5225409;28;20025;-70
2023/07/07 13:52:19;;;;;;;5.38;3.80;;;;;;;;;;5211738;28;20096;-70
2023/07/07 13:54:49;;;;;;;5.45;3.72;;;;;;;;;;5222507;28;20019;-70
2023/07/07 13:57:23;;;;;;;7.95;3.85;;;;;;;;;;5214375;28;20096;-73
2023/07/07 13:59:53;;;;;;;7.53;4.17;;;;;;;;;;5225156;28;20028;-73
2023/07/07 14:02:24;;;;;;;8.18;3.90;;;;;;;;;;5225040;28;20339;-73
2023/07/07 14:04:58;;;;;;;7.95;3.88;;;;;;;;;;5225148;28;20024;-73
2023/07/07 14:07:29;;;;;;;;;;;;;;;;;;5225145;28;20032;-73
2023/07/07 14:09:59;;;;;;;6.33;4.10;;;;;;;;;;5224982;28;20329;-73
2023/07/07 14:12:29;;;;;;;7.30;4.50;;;;;;;;;;5224974;28;20463;-73
2023/07/07 14:15:00;;;;;;;6.43;4.20;;;;;;;;;;5224673;28;20351;-73
2023/07/07 14:17:35;;;;;;;9.18;3.33;;;;;;;;;;5224362;28;20271;-73
2023/07/07 14:20:11;;;;;;;6.80;4.50;;;;;;;;;;5224855;28;20017;-73
2023/07/07 14:22:41;;;;;;;6.97;3.97;;;;;;;;;;5224985;28;20387;-72
2023/07/07 14:25:14;;;;;;;7.05;4.35;;;;;;;;;;5224825;28;20025;-73
2023/07/07 14:27:45;;;;;;;7.88;4.18;;;;;;;;;;5224217;28;20025;-73
2023/07/07 14:30:17;;;;;;;8.00;4.63;;;;;;;;;;5224773;28;20021;-72
2023/07/07 14:32:48;;;;;;;6.28;4.25;;;;;;;;;;5224875;28;20104;-73
2023/07/07 14:35:23;;;;;;;7.30;4.20;;;;;;;;;;5223338;28;20028;-73
2023/07/07 14:37:55;;;;;;;8.18;4.55;;;;;;;;;;5223964;28;20028;-73
2023/07/07 14:40:27;;;;;;;9.15;4.65;;;;;;;;;;5224560;28;20016;-72
2023/07/07 14:42:59;;;;;;;8.15;4.53;;;;;;;;;;5224728;28;20544;-73
2023/07/07 14:45:35;;;;;;;6.60;4.22;;;;;;;;;;5224669;28;20017;-73
2023/07/07 14:48:15;;;;;;;9.48;4.50;;;;;;;;;;5224191;28;20071;-72
2023/07/07 14:50:45;;;;;;;7.15;4.78;;;;;;;;;;5224597;28;20017;-72
2023/07/07 14:53:17;;;;;;;7.53;4.85;;;;;;;;;;5224716;28;20023;-73
2023/07/07 14:55:49;;;;;;;7.80;3.97;;;;;;;;;;5213194;28;20029;-73
2023/07/07 14:58:22;;;;;;;9.35;4.35;;;;;;;;;;5224783;28;20025;-73
2023/07/07 15:01:02;;;;;;;7.32;4.00;;;;;;;;;;5228310;28;20021;-73
2023/07/07 15:03:37;;;;;;;8.25;4.63;;;;;;;;;;5215898;28;20028;-73
2023/07/07 15:06:07;;;;;;;6.18;3.97;;;;;;;;;;5227991;28;20497;-72
2023/07/07 15:08:39;;;;;;;6.27;3.77;;;;;;;;;;5228886;28;20021;-72
2023/07/07 15:11:11;;;;;;;10.23;4.53;;;;;;;;;;5228027;28;20741;-72
2023/07/07 15:13:41;;;;;;;11.60;4.93;;;;;;;;;;5228689;28;20378;-72
2023/07/07 15:16:12;;;;;;;6.25;4.07;;;;;;;;;;5227820;28;20021;-72